sensor_id;sensor_type;location;lat;lon;timestamp;temperature;humidity
62581;DHT22;48640;48.770;9.148;2022-09-14T00:02:05;21.10;73.40
62581;DHT22;48640;48.770;9.148;2022-09-14T00:04:32;21.10;73.60
62581;DHT22;48640;48.770;9.148;2022-09-14T00:06:58;21.10;74.40
62581;DHT22;48640;48.770;9.148;2022-09-14T00:09:25;21.00;74.40
62581;DHT22;48640;48.770;9.148;2022-09-14T00:11:52;21.10;74.90
62581;DHT22;48640;48.770;9.148;2022-09-14T00:14:21;21.10;73.10
62581;DHT22;48640;48.770;9.148;2022-09-14T00:16:48;21.10;72.40
62581;DHT22;48640;48.770;9.148;2022-09-14T00:19:18;21.20;72.90
62581;DHT22;48640;48.770;9.148;2022-09-14T00:21:49;21.10;72.50
62581;DHT22;48640;48.770;9.148;2022-09-14T00:24:16;21.10;72.20
62581;DHT22;48640;48.770;9.148;2022-09-14T00:26:43;21.10;72.70
62581;DHT22;48640;48.770;9.148;2022-09-14T00:29:10;21.20;73.80
62581;DHT22;48640;48.770;9.148;2022-09-14T00:31:39;21.20;74.40
62581;DHT22;48640;48.770;9.148;2022-09-14T00:34:07;21.10;74.40
62581;DHT22;48640;48.770;9.148;2022-09-14T00:36:38;21.20;73.80
62581;DHT22;48640;48.770;9.148;2022-09-14T00:39:05;21.40;74.70
62581;DHT22;48640;48.770;9.148;2022-09-14T00:41:35;21.10;74.40
62581;DHT22;48640;48.770;9.148;2022-09-14T00:44:05;21.20;75.40
62581;DHT22;48640;48.770;9.148;2022-09-14T00:46:35;21.20;74.60
62581;DHT22;48640;48.770;9.148;2022-09-14T00:49:04;21.20;75.20
62581;DHT22;48640;48.770;9.148;2022-09-14T00:51:33;21.20;75.20
62581;DHT22;48640;48.770;9.148;2022-09-14T00:54:00;21.10;75.20
62581;DHT22;48640;48.770;9.148;2022-09-14T00:56:28;21.10;75.40
62581;DHT22;48640;48.770;9.148;2022-09-14T00:58:57;21.00;75.60
62581;DHT22;48640;48.770;9.148;2022-09-14T01:01:25;21.00;76.40
62581;DHT22;48640;48.770;9.148;2022-09-14T01:03:52;20.90;75.20
62581;DHT22;48640;48.770;9.148;2022-09-14T01:06:26;20.90;76.00
62581;DHT22;48640;48.770;9.148;2022-09-14T01:09:12;20.90;76.40
62581;DHT22;48640;48.770;9.148;2022-09-14T01:12:00;21.20;77.30
62581;DHT22;48640;48.770;9.148;2022-09-14T01:14:31;21.00;77.10
62581;DHT22;48640;48.770;9.148;2022-09-14T01:17:08;21.00;78.80
62581;DHT22;48640;48.770;9.148;2022-09-14T01:19:51;21.00;80.60
62581;DHT22;48640;48.770;9.148;2022-09-14T01:22:24;21.10;82.00
62581;DHT22;48640;48.770;9.148;2022-09-14T01:25:06;21.10;83.80
62581;DHT22;48640;48.770;9.148;2022-09-14T01:27:39;21.10;81.40
62581;DHT22;48640;48.770;9.148;2022-09-14T01:30:11;20.90;80.50
62581;DHT22;48640;48.770;9.148;2022-09-14T01:32:42;20.40;96.40
62581;DHT22;48640;48.770;9.148;2022-09-14T01:35:15;19.00;99.90
62581;DHT22;48640;48.770;9.148;2022-09-14T01:37:47;18.70;99.90
62581;DHT22;48640;48.770;9.148;2022-09-14T01:40:19;18.50;99.90
62581;DHT22;48640;48.770;9.148;2022-09-14T01:42:53;18.40;99.90
62581;DHT22;48640;48.770;9.148;2022-09-14T01:45:21;18.40;99.90
62581;DHT22;48640;48.770;9.148;2022-09-14T01:47:53;18.40;99.90
62581;DHT22;48640;48.770;9.148;2022-09-14T01:50:24;18.40;99.90
62581;DHT22;48640;48.770;9.148;2022-09-14T01:52:59;18.50;99.90
62581;DHT22;48640;48.770;9.148;2022-09-14T01:55:33;18.50;99.90
62581;DHT22;48640;48.770;9.148;2022-09-14T01:58:08;18.40;99.90
62581;DHT22;48640;48.770;9.148;2022-09-14T02:00:40;18.40;99.90
62581;DHT22;48640;48.770;9.148;2022-09-14T02:03:12;18.50;99.90
62581;DHT22;48640;48.770;9.148;2022-09-14T02:05:44;18.40;99.90
62581;DHT22;48640;48.770;9.148;2022-09-14T02:08:13;18.40;99.90
62581;DHT22;48640;48.770;9.148;2022-09-14T02:10:40;18.50;99.90
62581;DHT22;48640;48.770;9.148;2022-09-14T02:13:08;18.50;99.90
62581;DHT22;48640;48.770;9.148;2022-09-14T02:15:36;18.50;99.90
62581;DHT22;48640;48.770;9.148;2022-09-14T02:18:03;18.50;99.90
62581;DHT22;48640;48.770;9.148;2022-09-14T02:20:33;18.70;99.90
62581;DHT22;48640;48.770;9.148;2022-09-14T02:23:02;18.60;99.90
62581;DHT22;48640;48.770;9.148;2022-09-14T02:25:28;18.50;99.90
62581;DHT22;48640;48.770;9.148;2022-09-14T02:27:56;18.60;99.90
62581;DHT22;48640;48.770;9.148;2022-09-14T02:30:24;18.50;99.90
62581;DHT22;48640;48.770;9.148;2022-09-14T02:33:01;18.50;99.90
62581;DHT22;48640;48.770;9.148;2022-09-14T02:35:36;18.50;99.90
62581;DHT22;48640;48.770;9.148;2022-09-14T02:38:07;18.40;99.90
62581;DHT22;48640;48.770;9.148;2022-09-14T02:40:39;18.40;99.90
62581;DHT22;48640;48.770;9.148;2022-09-14T02:43:16;18.50;99.90
62581;DHT22;48640;48.770;9.148;2022-09-14T02:45:52;18.60;99.90
62581;DHT22;48640;48.770;9.148;2022-09-14T02:48:35;18.30;99.90
62581;DHT22;48640;48.770;9.148;2022-09-14T02:51:08;18.40;99.90
62581;DHT22;48640;48.770;9.148;2022-09-14T02:53:41;18.40;99.90
62581;DHT22;48640;48.770;9.148;2022-09-14T02:56:10;18.60;99.90
62581;DHT22;48640;48.770;9.148;2022-09-14T02:58:38;18.50;99.90
62581;DHT22;48640;48.770;9.148;2022-09-14T03:01:09;18.60;99.90
62581;DHT22;48640;48.770;9.148;2022-09-14T03:03:37;18.50;99.90
62581;DHT22;48640;48.770;9.148;2022-09-14T03:06:04;18.60;99.90
62581;DHT22;48640;48.770;9.148;2022-09-14T03:08:32;18.50;99.90
62581;DHT22;48640;48.770;9.148;2022-09-14T03:10:59;18.50;99.90
62581;DHT22;48640;48.770;9.148;2022-09-14T03:13:26;18.60;99.90
62581;DHT22;48640;48.770;9.148;2022-09-14T03:15:53;18.70;99.90
62581;DHT22;48640;48.770;9.148;2022-09-14T03:18:21;18.70;99.90
62581;DHT22;48640;48.770;9.148;2022-09-14T03:20:48;18.80;99.90
62581;DHT22;48640;48.770;9.148;2022-09-14T03:23:15;18.80;99.90
62581;DHT22;48640;48.770;9.148;2022-09-14T03:25:43;18.70;99.90
62581;DHT22;48640;48.770;9.148;2022-09-14T03:28:11;18.60;99.90
62581;DHT22;48640;48.770;9.148;2022-09-14T03:30:38;18.40;99.90
62581;DHT22;48640;48.770;9.148;2022-09-14T03:33:04;18.30;99.90
62581;DHT22;48640;48.770;9.148;2022-09-14T03:35:33;18.20;99.90
62581;DHT22;48640;48.770;9.148;2022-09-14T03:38:00;18.20;99.90
62581;DHT22;48640;48.770;9.148;2022-09-14T03:40:28;18.20;99.90
62581;DHT22;48640;48.770;9.148;2022-09-14T03:42:55;18.30;99.90
62581;DHT22;48640;48.770;9.148;2022-09-14T03:45:22;18.40;99.90
62581;DHT22;48640;48.770;9.148;2022-09-14T03:47:49;18.50;99.90
62581;DHT22;48640;48.770;9.148;2022-09-14T03:50:18;18.60;99.90
62581;DHT22;48640;48.770;9.148;2022-09-14T03:52:46;18.60;99.90
62581;DHT22;48640;48.770;9.148;2022-09-14T03:55:14;18.60;99.90
62581;DHT22;48640;48.770;9.148;2022-09-14T03:57:40;18.60;99.90
62581;DHT22;48640;48.770;9.148;2022-09-14T04:00:08;18.60;99.90
62581;DHT22;48640;48.770;9.148;2022-09-14T04:02:35;18.70;99.90
62581;DHT22;48640;48.770;9.148;2022-09-14T04:05:02;18.70;99.90
62581;DHT22;48640;48.770;9.148;2022-09-14T04:07:29;18.70;99.90
62581;DHT22;48640;48.770;9.148;2022-09-14T04:09:57;18.70;99.90
62581;DHT22;48640;48.770;9.148;2022-09-14T04:12:24;18.70;99.90
62581;DHT22;48640;48.770;9.148;2022-09-14T04:14:51;18.70;99.90
62581;DHT22;48640;48.770;9.148;2022-09-14T04:17:17;18.70;99.90
62581;DHT22;48640;48.770;9.148;2022-09-14T04:19:44;18.70;99.90
62581;DHT22;48640;48.770;9.148;2022-09-14T04:22:11;18.70;99.90
62581;DHT22;48640;48.770;9.148;2022-09-14T04:24:38;18.70;99.90
62581;DHT22;48640;48.770;9.148;2022-09-14T04:27:06;18.70;99.90
62581;DHT22;48640;48.770;9.148;2022-09-14T04:29:32;18.80;99.90
62581;DHT22;48640;48.770;9.148;2022-09-14T04:31:59;18.70;99.90
62581;DHT22;48640;48.770;9.148;2022-09-14T04:34:26;18.70;99.90
62581;DHT22;48640;48.770;9.148;2022-09-14T04:36:53;18.70;99.90
62581;DHT22;48640;48.770;9.148;2022-09-14T04:39:20;18.70;99.90
62581;DHT22;48640;48.770;9.148;2022-09-14T04:41:47;18.70;99.90
62581;DHT22;48640;48.770;9.148;2022-09-14T04:44:15;18.60;99.90
62581;DHT22;48640;48.770;9.148;2022-09-14T04:46:42;18.60;99.90
62581;DHT22;48640;48.770;9.148;2022-09-14T04:49:10;18.70;99.90
62581;DHT22;48640;48.770;9.148;2022-09-14T04:51:37;18.70;99.90
62581;DHT22;48640;48.770;9.148;2022-09-14T04:54:05;18.70;99.90
62581;DHT22;48640;48.770;9.148;2022-09-14T04:56:34;18.70;99.90
62581;DHT22;48640;48.770;9.148;2022-09-14T04:59:02;18.60;99.90
62581;DHT22;48640;48.770;9.148;2022-09-14T05:01:33;18.70;99.90
62581;DHT22;48640;48.770;9.148;2022-09-14T05:04:00;18.70;99.90
62581;DHT22;48640;48.770;9.148;2022-09-14T05:06:29;18.70;99.90
62581;DHT22;48640;48.770;9.148;2022-09-14T05:08:57;18.70;99.90
62581;DHT22;48640;48.770;9.148;2022-09-14T05:11:26;18.70;99.90
62581;DHT22;48640;48.770;9.148;2022-09-14T05:13:54;18.80;99.90
62581;DHT22;48640;48.770;9.148;2022-09-14T05:16:23;18.80;99.90
62581;DHT22;48640;48.770;9.148;2022-09-14T05:18:53;18.80;99.90
62581;DHT22;48640;48.770;9.148;2022-09-14T05:21:22;18.90;99.90
62581;DHT22;48640;48.770;9.148;2022-09-14T05:23:52;18.90;99.90
62581;DHT22;48640;48.770;9.148;2022-09-14T05:26:19;19.00;99.90
62581;DHT22;48640;48.770;9.148;2022-09-14T05:28:49;19.00;99.90
62581;DHT22;48640;48.770;9.148;2022-09-14T05:31:16;19.10;99.90
62581;DHT22;48640;48.770;9.148;2022-09-14T05:33:43;19.10;99.90
62581;DHT22;48640;48.770;9.148;2022-09-14T05:36:12;19.20;99.90
62581;DHT22;48640;48.770;9.148;2022-09-14T05:38:39;19.20;99.90
62581;DHT22;48640;48.770;9.148;2022-09-14T05:41:09;19.10;99.90
62581;DHT22;48640;48.770;9.148;2022-09-14T05:43:35;19.10;99.90
62581;DHT22;48640;48.770;9.148;2022-09-14T05:46:03;19.10;99.90
62581;DHT22;48640;48.770;9.148;2022-09-14T05:48:31;19.00;99.90
62581;DHT22;48640;48.770;9.148;2022-09-14T05:50:58;19.00;99.90
62581;DHT22;48640;48.770;9.148;2022-09-14T05:53:27;19.00;99.90
62581;DHT22;48640;48.770;9.148;2022-09-14T05:56:01;18.90;99.90
62581;DHT22;48640;48.770;9.148;2022-09-14T05:58:28;18.80;99.90
62581;DHT22;48640;48.770;9.148;2022-09-14T06:00:55;18.80;99.90
62581;DHT22;48640;48.770;9.148;2022-09-14T06:03:22;18.80;99.90
62581;DHT22;48640;48.770;9.148;2022-09-14T06:05:49;18.90;99.90
62581;DHT22;48640;48.770;9.148;2022-09-14T06:08:19;18.90;99.90
62581;DHT22;48640;48.770;9.148;2022-09-14T06:10:47;19.10;99.90
62581;DHT22;48640;48.770;9.148;2022-09-14T06:13:14;19.30;99.90
62581;DHT22;48640;48.770;9.148;2022-09-14T06:15:41;19.50;99.90
62581;DHT22;48640;48.770;9.148;2022-09-14T06:18:08;19.80;99.90
62581;DHT22;48640;48.770;9.148;2022-09-14T06:20:34;19.90;99.90
62581;DHT22;48640;48.770;9.148;2022-09-14T06:23:01;20.10;99.90
62581;DHT22;48640;48.770;9.148;2022-09-14T06:25:28;20.10;99.90
62581;DHT22;48640;48.770;9.148;2022-09-14T06:27:56;20.30;99.90
62581;DHT22;48640;48.770;9.148;2022-09-14T06:30:23;20.30;99.90
62581;DHT22;48640;48.770;9.148;2022-09-14T06:32:50;20.50;99.90
62581;DHT22;48640;48.770;9.148;2022-09-14T06:35:17;20.60;99.90
62581;DHT22;48640;48.770;9.148;2022-09-14T06:37:44;20.80;99.90
62581;DHT22;48640;48.770;9.148;2022-09-14T06:40:11;20.90;99.90
62581;DHT22;48640;48.770;9.148;2022-09-14T06:42:38;21.10;99.90
62581;DHT22;48640;48.770;9.148;2022-09-14T06:45:07;21.00;99.90
62581;DHT22;48640;48.770;9.148;2022-09-14T06:47:34;21.00;99.90
62581;DHT22;48640;48.770;9.148;2022-09-14T06:50:01;20.90;99.90
62581;DHT22;48640;48.770;9.148;2022-09-14T06:52:27;20.80;99.90
62581;DHT22;48640;48.770;9.148;2022-09-14T06:54:54;20.90;99.90
62581;DHT22;48640;48.770;9.148;2022-09-14T06:57:21;20.80;99.90
62581;DHT22;48640;48.770;9.148;2022-09-14T06:59:48;20.90;99.90
62581;DHT22;48640;48.770;9.148;2022-09-14T07:02:16;20.90;99.90
62581;DHT22;48640;48.770;9.148;2022-09-14T07:04:43;21.10;99.90
62581;DHT22;48640;48.770;9.148;2022-09-14T07:07:09;21.20;99.90
62581;DHT22;48640;48.770;9.148;2022-09-14T07:09:36;21.40;99.90
62581;DHT22;48640;48.770;9.148;2022-09-14T07:12:03;21.50;99.90
62581;DHT22;48640;48.770;9.148;2022-09-14T07:14:30;21.50;99.90
62581;DHT22;48640;48.770;9.148;2022-09-14T07:16:57;21.70;99.90
62581;DHT22;48640;48.770;9.148;2022-09-14T07:19:25;21.70;99.90
62581;DHT22;48640;48.770;9.148;2022-09-14T07:21:52;22.00;99.90
62581;DHT22;48640;48.770;9.148;2022-09-14T07:24:19;22.00;99.90
62581;DHT22;48640;48.770;9.148;2022-09-14T07:26:46;22.10;99.90
62581;DHT22;48640;48.770;9.148;2022-09-14T07:29:15;22.10;99.90
62581;DHT22;48640;48.770;9.148;2022-09-14T07:31:44;22.20;99.90
62581;DHT22;48640;48.770;9.148;2022-09-14T07:34:12;22.10;99.90
62581;DHT22;48640;48.770;9.148;2022-09-14T07:36:41;22.20;99.90
62581;DHT22;48640;48.770;9.148;2022-09-14T07:39:10;22.30;99.90
62581;DHT22;48640;48.770;9.148;2022-09-14T07:41:37;22.20;99.90
62581;DHT22;48640;48.770;9.148;2022-09-14T07:44:05;22.20;99.90
62581;DHT22;48640;48.770;9.148;2022-09-14T07:46:39;22.30;99.90
62581;DHT22;48640;48.770;9.148;2022-09-14T07:49:07;22.40;99.90
62581;DHT22;48640;48.770;9.148;2022-09-14T07:51:35;22.60;99.90
62581;DHT22;48640;48.770;9.148;2022-09-14T07:54:05;22.60;99.90
62581;DHT22;48640;48.770;9.148;2022-09-14T07:56:32;22.70;99.90
62581;DHT22;48640;48.770;9.148;2022-09-14T07:58:59;22.90;99.90
62581;DHT22;48640;48.770;9.148;2022-09-14T08:01:28;23.20;99.90
62581;DHT22;48640;48.770;9.148;2022-09-14T08:03:59;23.40;99.90
62581;DHT22;48640;48.770;9.148;2022-09-14T08:06:26;23.50;99.90
62581;DHT22;48640;48.770;9.148;2022-09-14T08:08:54;23.80;99.90
62581;DHT22;48640;48.770;9.148;2022-09-14T08:11:24;24.10;99.90
62581;DHT22;48640;48.770;9.148;2022-09-14T08:13:53;23.80;99.90
62581;DHT22;48640;48.770;9.148;2022-09-14T08:16:21;23.80;99.90
62581;DHT22;48640;48.770;9.148;2022-09-14T08:18:52;24.10;99.90
62581;DHT22;48640;48.770;9.148;2022-09-14T08:21:19;24.80;99.90
62581;DHT22;48640;48.770;9.148;2022-09-14T08:23:46;25.30;99.90
62581;DHT22;48640;48.770;9.148;2022-09-14T08:26:14;25.40;99.90
62581;DHT22;48640;48.770;9.148;2022-09-14T08:28:43;26.90;98.90
62581;DHT22;48640;48.770;9.148;2022-09-14T08:31:12;27.60;94.50
62581;DHT22;48640;48.770;9.148;2022-09-14T08:33:40;26.60;94.90
62581;DHT22;48640;48.770;9.148;2022-09-14T08:36:08;25.70;96.40
62581;DHT22;48640;48.770;9.148;2022-09-14T08:38:35;25.60;97.10
62581;DHT22;48640;48.770;9.148;2022-09-14T08:41:10;26.10;97.20
62581;DHT22;48640;48.770;9.148;2022-09-14T08:43:37;25.90;96.30
62581;DHT22;48640;48.770;9.148;2022-09-14T08:46:13;25.80;96.40
62581;DHT22;48640;48.770;9.148;2022-09-14T08:48:44;26.60;95.50
62581;DHT22;48640;48.770;9.148;2022-09-14T08:51:11;28.00;93.80
62581;DHT22;48640;48.770;9.148;2022-09-14T08:53:39;29.90;88.70
62581;DHT22;48640;48.770;9.148;2022-09-14T08:56:11;30.70;77.70
62581;DHT22;48640;48.770;9.148;2022-09-14T08:58:49;31.40;70.90
62581;DHT22;48640;48.770;9.148;2022-09-14T09:01:21;32.70;65.60
62581;DHT22;48640;48.770;9.148;2022-09-14T09:04:08;32.80;60.00
62581;DHT22;48640;48.770;9.148;2022-09-14T09:06:43;33.10;60.40
62581;DHT22;48640;48.770;9.148;2022-09-14T09:09:18;34.20;57.70
62581;DHT22;48640;48.770;9.148;2022-09-14T09:11:49;33.80;55.40
62581;DHT22;48640;48.770;9.148;2022-09-14T09:14:19;33.70;53.90
62581;DHT22;48640;48.770;9.148;2022-09-14T09:16:53;34.60;53.10
62581;DHT22;48640;48.770;9.148;2022-09-14T09:19:25;35.60;49.50
62581;DHT22;48640;48.770;9.148;2022-09-14T09:21:54;36.70;45.90
62581;DHT22;48640;48.770;9.148;2022-09-14T09:24:26;37.20;44.80
62581;DHT22;48640;48.770;9.148;2022-09-14T09:26:54;37.40;43.60
62581;DHT22;48640;48.770;9.148;2022-09-14T09:29:20;38.20;41.90
62581;DHT22;48640;48.770;9.148;2022-09-14T09:31:51;38.70;40.40
62581;DHT22;48640;48.770;9.148;2022-09-14T09:34:23;38.60;39.80
62581;DHT22;48640;48.770;9.148;2022-09-14T09:36:51;39.10;38.00
62581;DHT22;48640;48.770;9.148;2022-09-14T09:39:20;39.00;38.00
62581;DHT22;48640;48.770;9.148;2022-09-14T09:41:51;38.30;37.80
62581;DHT22;48640;48.770;9.148;2022-09-14T09:44:20;38.10;38.70
62581;DHT22;48640;48.770;9.148;2022-09-14T09:46:52;38.10;38.80
62581;DHT22;48640;48.770;9.148;2022-09-14T09:49:22;38.70;38.20
62581;DHT22;48640;48.770;9.148;2022-09-14T09:51:49;38.20;38.30
62581;DHT22;48640;48.770;9.148;2022-09-14T09:54:35;37.60;38.30
62581;DHT22;48640;48.770;9.148;2022-09-14T09:57:06;36.10;40.10
62581;DHT22;48640;48.770;9.148;2022-09-14T09:59:43;35.90;41.30
62581;DHT22;48640;48.770;9.148;2022-09-14T10:02:26;35.00;43.00
62581;DHT22;48640;48.770;9.148;2022-09-14T10:04:59;33.80;44.90
62581;DHT22;48640;48.770;9.148;2022-09-14T10:07:27;32.30;48.20
62581;DHT22;48640;48.770;9.148;2022-09-14T10:10:04;31.70;49.30
62581;DHT22;48640;48.770;9.148;2022-09-14T10:12:31;31.70;51.70
62581;DHT22;48640;48.770;9.148;2022-09-14T10:15:12;32.20;50.10
62581;DHT22;48640;48.770;9.148;2022-09-14T10:17:59;31.90;51.00
62581;DHT22;48640;48.770;9.148;2022-09-14T10:20:27;31.30;51.00
62581;DHT22;48640;48.770;9.148;2022-09-14T10:22:54;30.90;51.80
62581;DHT22;48640;48.770;9.148;2022-09-14T10:25:23;30.30;52.80
62581;DHT22;48640;48.770;9.148;2022-09-14T10:27:58;29.70;54.10
62581;DHT22;48640;48.770;9.148;2022-09-14T10:30:26;29.60;56.00
62581;DHT22;48640;48.770;9.148;2022-09-14T10:32:56;29.80;56.20
62581;DHT22;48640;48.770;9.148;2022-09-14T10:35:31;30.30;56.30
62581;DHT22;48640;48.770;9.148;2022-09-14T10:38:10;30.20;54.90
62581;DHT22;48640;48.770;9.148;2022-09-14T10:40:40;30.20;55.00
62581;DHT22;48640;48.770;9.148;2022-09-14T10:43:13;30.40;54.10
62581;DHT22;48640;48.770;9.148;2022-09-14T10:45:46;29.40;54.90
62581;DHT22;48640;48.770;9.148;2022-09-14T10:48:42;29.00;57.00
62581;DHT22;48640;48.770;9.148;2022-09-14T10:51:27;29.20;58.20
62581;DHT22;48640;48.770;9.148;2022-09-14T10:54:07;28.80;56.60
62581;DHT22;48640;48.770;9.148;2022-09-14T10:56:51;28.70;56.90
62581;DHT22;48640;48.770;9.148;2022-09-14T10:59:29;28.80;57.10
62581;DHT22;48640;48.770;9.148;2022-09-14T11:02:30;28.60;56.80
62581;DHT22;48640;48.770;9.148;2022-09-14T11:05:14;28.50;57.80
62581;DHT22;48640;48.770;9.148;2022-09-14T11:07:54;28.60;58.00
62581;DHT22;48640;48.770;9.148;2022-09-14T11:10:28;28.60;57.40
62581;DHT22;48640;48.770;9.148;2022-09-14T11:13:20;28.70;57.50
62581;DHT22;48640;48.770;9.148;2022-09-14T11:15:57;28.90;57.80
62581;DHT22;48640;48.770;9.148;2022-09-14T11:18:32;29.20;58.30
62581;DHT22;48640;48.770;9.148;2022-09-14T11:21:08;29.50;56.70
62581;DHT22;48640;48.770;9.148;2022-09-14T11:23:46;29.70;55.80
62581;DHT22;48640;48.770;9.148;2022-09-14T11:26:17;29.90;55.50
62581;DHT22;48640;48.770;9.148;2022-09-14T11:28:48;30.00;55.00
62581;DHT22;48640;48.770;9.148;2022-09-14T11:31:21;30.00;54.10
62581;DHT22;48640;48.770;9.148;2022-09-14T11:33:53;30.30;53.40
62581;DHT22;48640;48.770;9.148;2022-09-14T11:36:24;30.20;53.10
62581;DHT22;48640;48.770;9.148;2022-09-14T11:38:54;30.20;52.80
62581;DHT22;48640;48.770;9.148;2022-09-14T11:41:27;30.10;52.60
62581;DHT22;48640;48.770;9.148;2022-09-14T11:43:58;30.30;53.40
62581;DHT22;48640;48.770;9.148;2022-09-14T11:46:31;30.60;51.90
62581;DHT22;48640;48.770;9.148;2022-09-14T11:49:08;30.60;51.80
62581;DHT22;48640;48.770;9.148;2022-09-14T11:51:43;30.50;53.10
62581;DHT22;48640;48.770;9.148;2022-09-14T11:54:14;30.60;51.00
62581;DHT22;48640;48.770;9.148;2022-09-14T11:56:42;30.70;51.20
62581;DHT22;48640;48.770;9.148;2022-09-14T11:59:34;30.40;51.20
62581;DHT22;48640;48.770;9.148;2022-09-14T12:05:27;29.60;52.30
62581;DHT22;48640;48.770;9.148;2022-09-14T12:08:00;29.30;54.40
62581;DHT22;48640;48.770;9.148;2022-09-14T12:10:27;28.90;54.20
62581;DHT22;48640;48.770;9.148;2022-09-14T12:12:56;28.60;55.40
62581;DHT22;48640;48.770;9.148;2022-09-14T12:15:34;28.30;56.50
62581;DHT22;48640;48.770;9.148;2022-09-14T12:18:21;28.10;57.10
62581;DHT22;48640;48.770;9.148;2022-09-14T12:20:56;28.00;57.70
62581;DHT22;48640;48.770;9.148;2022-09-14T12:23:31;27.80;58.90
62581;DHT22;48640;48.770;9.148;2022-09-14T12:29:02;27.40;60.50
62581;DHT22;48640;48.770;9.148;2022-09-14T12:31:35;27.30;61.50
62581;DHT22;48640;48.770;9.148;2022-09-14T12:34:17;27.10;62.00
62581;DHT22;48640;48.770;9.148;2022-09-14T12:42:54;26.20;67.30
62581;DHT22;48640;48.770;9.148;2022-09-14T12:45:46;26.00;68.90
62581;DHT22;48640;48.770;9.148;2022-09-14T12:51:21;25.40;75.00
62581;DHT22;48640;48.770;9.148;2022-09-14T12:53:58;25.10;78.00
62581;DHT22;48640;48.770;9.148;2022-09-14T12:56:31;24.60;80.00
62581;DHT22;48640;48.770;9.148;2022-09-14T12:59:07;24.10;84.10
62581;DHT22;48640;48.770;9.148;2022-09-14T13:01:42;23.70;88.00
62581;DHT22;48640;48.770;9.148;2022-09-14T13:04:14;23.40;91.10
62581;DHT22;48640;48.770;9.148;2022-09-14T13:06:43;23.00;92.00
62581;DHT22;48640;48.770;9.148;2022-09-14T13:09:17;22.90;93.70
62581;DHT22;48640;48.770;9.148;2022-09-14T13:11:45;22.50;94.80
62581;DHT22;48640;48.770;9.148;2022-09-14T13:14:17;22.40;96.60
62581;DHT22;48640;48.770;9.148;2022-09-14T13:16:46;22.30;97.20
62581;DHT22;48640;48.770;9.148;2022-09-14T13:19:22;22.30;98.40
62581;DHT22;48640;48.770;9.148;2022-09-14T13:21:51;22.30;98.60
62581;DHT22;48640;48.770;9.148;2022-09-14T13:24:23;22.30;97.60
62581;DHT22;48640;48.770;9.148;2022-09-14T13:26:51;22.30;98.40
62581;DHT22;48640;48.770;9.148;2022-09-14T13:29:19;22.20;98.50
62581;DHT22;48640;48.770;9.148;2022-09-14T13:31:46;22.20;99.30
62581;DHT22;48640;48.770;9.148;2022-09-14T13:34:18;22.30;99.60
62581;DHT22;48640;48.770;9.148;2022-09-14T13:36:46;22.30;99.70
62581;DHT22;48640;48.770;9.148;2022-09-14T13:39:22;22.40;99.90
62581;DHT22;48640;48.770;9.148;2022-09-14T13:41:49;22.50;99.60
62581;DHT22;48640;48.770;9.148;2022-09-14T13:44:16;22.50;99.90
62581;DHT22;48640;48.770;9.148;2022-09-14T13:46:45;22.50;99.30
62581;DHT22;48640;48.770;9.148;2022-09-14T13:49:12;22.50;99.80
62581;DHT22;48640;48.770;9.148;2022-09-14T13:51:38;22.20;99.60
62581;DHT22;48640;48.770;9.148;2022-09-14T13:54:17;22.30;99.80
62581;DHT22;48640;48.770;9.148;2022-09-14T13:56:45;22.20;99.30
62581;DHT22;48640;48.770;9.148;2022-09-14T13:59:22;22.10;99.30
62581;DHT22;48640;48.770;9.148;2022-09-14T14:01:53;22.10;99.40
62581;DHT22;48640;48.770;9.148;2022-09-14T14:04:25;21.90;99.00
62581;DHT22;48640;48.770;9.148;2022-09-14T14:07:05;21.80;99.40
62581;DHT22;48640;48.770;9.148;2022-09-14T14:09:45;21.70;99.40
62581;DHT22;48640;48.770;9.148;2022-09-14T14:12:21;21.60;99.90
62581;DHT22;48640;48.770;9.148;2022-09-14T14:14:55;21.50;99.90
62581;DHT22;48640;48.770;9.148;2022-09-14T14:17:31;21.30;99.90
62581;DHT22;48640;48.770;9.148;2022-09-14T14:20:25;21.40;99.90
62581;DHT22;48640;48.770;9.148;2022-09-14T14:22:54;21.40;99.90
62581;DHT22;48640;48.770;9.148;2022-09-14T14:25:27;21.60;99.90
62581;DHT22;48640;48.770;9.148;2022-09-14T14:27:58;21.50;99.90
62581;DHT22;48640;48.770;9.148;2022-09-14T14:30:26;21.50;99.90
62581;DHT22;48640;48.770;9.148;2022-09-14T14:32:57;21.60;99.90
62581;DHT22;48640;48.770;9.148;2022-09-14T14:35:26;21.50;99.90
62581;DHT22;48640;48.770;9.148;2022-09-14T14:37:53;21.50;99.90
62581;DHT22;48640;48.770;9.148;2022-09-14T14:40:20;21.50;99.90
62581;DHT22;48640;48.770;9.148;2022-09-14T14:42:47;21.50;99.90
62581;DHT22;48640;48.770;9.148;2022-09-14T14:45:18;21.50;99.90
62581;DHT22;48640;48.770;9.148;2022-09-14T14:47:45;21.40;99.90
62581;DHT22;48640;48.770;9.148;2022-09-14T14:50:14;21.30;99.90
62581;DHT22;48640;48.770;9.148;2022-09-14T14:52:41;21.20;99.90
62581;DHT22;48640;48.770;9.148;2022-09-14T14:55:08;21.20;99.90
62581;DHT22;48640;48.770;9.148;2022-09-14T14:57:35;21.20;99.90
62581;DHT22;48640;48.770;9.148;2022-09-14T15:03:16;21.10;99.90
62581;DHT22;48640;48.770;9.148;2022-09-14T15:05:46;21.10;99.90
62581;DHT22;48640;48.770;9.148;2022-09-14T15:08:15;21.10;99.90
62581;DHT22;48640;48.770;9.148;2022-09-14T15:10:42;21.10;99.90
62581;DHT22;48640;48.770;9.148;2022-09-14T15:13:09;21.00;99.90
62581;DHT22;48640;48.770;9.148;2022-09-14T15:15:38;21.10;99.90
62581;DHT22;48640;48.770;9.148;2022-09-14T15:18:06;21.00;99.90
62581;DHT22;48640;48.770;9.148;2022-09-14T15:20:32;20.90;99.90
62581;DHT22;48640;48.770;9.148;2022-09-14T15:23:01;20.90;99.90
62581;DHT22;48640;48.770;9.148;2022-09-14T15:25:27;20.80;99.90
62581;DHT22;48640;48.770;9.148;2022-09-14T15:27:54;20.80;99.90
62581;DHT22;48640;48.770;9.148;2022-09-14T15:30:21;20.80;99.90
62581;DHT22;48640;48.770;9.148;2022-09-14T15:32:48;20.80;99.90
62581;DHT22;48640;48.770;9.148;2022-09-14T15:35:15;20.80;99.90
62581;DHT22;48640;48.770;9.148;2022-09-14T15:37:42;20.90;99.90
62581;DHT22;48640;48.770;9.148;2022-09-14T15:40:10;21.00;99.90
62581;DHT22;48640;48.770;9.148;2022-09-14T15:42:37;21.10;99.90
62581;DHT22;48640;48.770;9.148;2022-09-14T15:45:05;21.00;99.90
62581;DHT22;48640;48.770;9.148;2022-09-14T15:47:32;20.90;99.90
62581;DHT22;48640;48.770;9.148;2022-09-14T15:49:59;20.80;99.90
62581;DHT22;48640;48.770;9.148;2022-09-14T15:52:25;20.80;99.90
62581;DHT22;48640;48.770;9.148;2022-09-14T15:54:55;20.60;99.90
62581;DHT22;48640;48.770;9.148;2022-09-14T15:57:26;20.50;99.90
62581;DHT22;48640;48.770;9.148;2022-09-14T15:59:53;20.60;99.90
62581;DHT22;48640;48.770;9.148;2022-09-14T16:02:20;20.60;99.90
62581;DHT22;48640;48.770;9.148;2022-09-14T16:04:46;20.60;99.90
62581;DHT22;48640;48.770;9.148;2022-09-14T16:07:14;20.50;99.90
62581;DHT22;48640;48.770;9.148;2022-09-14T16:09:42;20.40;99.90